sensor_id;sensor_type;location;lat;lon;timestamp;P1;durP1;ratioP1;P2;durP2;ratioP2
21868;SDS011;11099;41.564;23.296;2022-08-19T00:01:45;7.88;;;6.13;;
21868;SDS011;11099;41.564;23.296;2022-08-19T00:04:13;7.20;;;6.43;;
21868;SDS011;11099;41.564;23.296;2022-08-19T00:06:42;7.03;;;6.28;;
21868;SDS011;11099;41.564;23.296;2022-08-19T00:09:09;7.47;;;6.78;;
21868;SDS011;11099;41.564;23.296;2022-08-19T00:11:37;10.93;;;7.13;;
21868;SDS011;11099;41.564;23.296;2022-08-19T00:14:04;13.60;;;6.90;;
21868;SDS011;11099;41.564;23.296;2022-08-19T00:16:32;11.82;;;7.38;;
21868;SDS011;11099;41.564;23.296;2022-08-19T00:18:58;8.40;;;6.85;;
21868;SDS011;11099;41.564;23.296;2022-08-19T00:21:23;11.15;;;7.22;;
21868;SDS011;11099;41.564;23.296;2022-08-19T00:23:50;7.68;;;6.80;;
21868;SDS011;11099;41.564;23.296;2022-08-19T00:26:16;8.05;;;7.25;;
21868;SDS011;11099;41.564;23.296;2022-08-19T00:28:42;8.73;;;7.30;;
21868;SDS011;11099;41.564;23.296;2022-08-19T00:31:08;8.70;;;7.25;;
21868;SDS011;11099;41.564;23.296;2022-08-19T00:33:34;9.68;;;7.63;;
21868;SDS011;11099;41.564;23.296;2022-08-19T00:36:00;10.93;;;9.25;;
21868;SDS011;11099;41.564;23.296;2022-08-19T00:38:29;12.38;;;9.10;;
21868;SDS011;11099;41.564;23.296;2022-08-19T00:40:55;10.70;;;8.70;;
21868;SDS011;11099;41.564;23.296;2022-08-19T00:43:21;11.27;;;9.27;;
21868;SDS011;11099;41.564;23.296;2022-08-19T00:45:48;18.00;;;9.70;;
21868;SDS011;11099;41.564;23.296;2022-08-19T00:48:15;14.23;;;9.50;;
21868;SDS011;11099;41.564;23.296;2022-08-19T00:50:42;10.27;;;9.07;;
21868;SDS011;11099;41.564;23.296;2022-08-19T00:53:09;14.32;;;11.20;;
21868;SDS011;11099;41.564;23.296;2022-08-19T00:55:37;13.23;;;10.23;;
21868;SDS011;11099;41.564;23.296;2022-08-19T00:58:06;11.55;;;10.05;;
21868;SDS011;11099;41.564;23.296;2022-08-19T01:00:35;18.67;;;10.48;;
21868;SDS011;11099;41.564;23.296;2022-08-19T01:03:05;11.05;;;9.85;;
21868;SDS011;11099;41.564;23.296;2022-08-19T01:05:34;15.68;;;9.23;;
21868;SDS011;11099;41.564;23.296;2022-08-19T01:08:00;12.80;;;9.20;;
21868;SDS011;11099;41.564;23.296;2022-08-19T01:10:29;14.07;;;9.53;;
21868;SDS011;11099;41.564;23.296;2022-08-19T01:12:58;11.60;;;8.88;;
21868;SDS011;11099;41.564;23.296;2022-08-19T01:15:29;14.27;;;9.02;;
21868;SDS011;11099;41.564;23.296;2022-08-19T01:17:58;11.95;;;9.27;;
21868;SDS011;11099;41.564;23.296;2022-08-19T01:20:26;16.83;;;9.43;;
21868;SDS011;11099;41.564;23.296;2022-08-19T01:22:53;14.57;;;9.23;;
21868;SDS011;11099;41.564;23.296;2022-08-19T01:25:22;13.70;;;9.43;;
21868;SDS011;11099;41.564;23.296;2022-08-19T01:27:53;13.25;;;9.65;;
21868;SDS011;11099;41.564;23.296;2022-08-19T01:30:24;12.10;;;9.80;;
21868;SDS011;11099;41.564;23.296;2022-08-19T01:32:52;11.88;;;9.50;;
21868;SDS011;11099;41.564;23.296;2022-08-19T01:35:19;11.82;;;9.07;;
21868;SDS011;11099;41.564;23.296;2022-08-19T01:37:56;14.75;;;9.50;;
21868;SDS011;11099;41.564;23.296;2022-08-19T01:40:26;13.45;;;8.80;;
21868;SDS011;11099;41.564;23.296;2022-08-19T01:42:57;12.82;;;7.85;;
21868;SDS011;11099;41.564;23.296;2022-08-19T01:45:23;10.13;;;7.43;;
21868;SDS011;11099;41.564;23.296;2022-08-19T01:47:50;10.32;;;7.07;;
21868;SDS011;11099;41.564;23.296;2022-08-19T01:50:16;10.95;;;6.30;;
21868;SDS011;11099;41.564;23.296;2022-08-19T01:52:42;6.38;;;5.78;;
21868;SDS011;11099;41.564;23.296;2022-08-19T01:55:11;7.78;;;6.15;;
21868;SDS011;11099;41.564;23.296;2022-08-19T01:57:41;7.57;;;5.80;;
21868;SDS011;11099;41.564;23.296;2022-08-19T02:00:12;6.85;;;5.78;;
21868;SDS011;11099;41.564;23.296;2022-08-19T02:02:41;6.15;;;5.63;;
21868;SDS011;11099;41.564;23.296;2022-08-19T02:05:07;7.40;;;6.10;;
21868;SDS011;11099;41.564;23.296;2022-08-19T02:07:33;8.45;;;6.45;;
21868;SDS011;11099;41.564;23.296;2022-08-19T02:10:06;9.15;;;7.10;;
21868;SDS011;11099;41.564;23.296;2022-08-19T02:12:35;7.93;;;7.13;;
21868;SDS011;11099;41.564;23.296;2022-08-19T02:15:00;7.43;;;6.72;;
21868;SDS011;11099;41.564;23.296;2022-08-19T02:17:27;7.18;;;6.43;;
21868;SDS011;11099;41.564;23.296;2022-08-19T02:19:57;8.32;;;6.78;;
21868;SDS011;11099;41.564;23.296;2022-08-19T02:22:23;7.78;;;7.03;;
21868;SDS011;11099;41.564;23.296;2022-08-19T02:24:51;7.90;;;6.22;;
21868;SDS011;11099;41.564;23.296;2022-08-19T02:27:17;9.15;;;6.47;;
21868;SDS011;11099;41.564;23.296;2022-08-19T02:29:42;13.45;;;6.35;;
21868;SDS011;11099;41.564;23.296;2022-08-19T02:32:10;10.40;;;6.00;;
21868;SDS011;11099;41.564;23.296;2022-08-19T02:34:36;7.05;;;6.40;;
21868;SDS011;11099;41.564;23.296;2022-08-19T02:37:01;9.38;;;6.30;;
21868;SDS011;11099;41.564;23.296;2022-08-19T02:39:27;7.20;;;6.50;;
21868;SDS011;11099;41.564;23.296;2022-08-19T02:41:52;6.70;;;5.63;;
21868;SDS011;11099;41.564;23.296;2022-08-19T02:44:18;5.70;;;5.20;;
21868;SDS011;11099;41.564;23.296;2022-08-19T02:46:45;6.93;;;5.38;;
21868;SDS011;11099;41.564;23.296;2022-08-19T02:49:12;7.33;;;5.30;;
21868;SDS011;11099;41.564;23.296;2022-08-19T02:51:39;7.32;;;5.95;;
21868;SDS011;11099;41.564;23.296;2022-08-19T02:54:06;5.43;;;5.05;;
21868;SDS011;11099;41.564;23.296;2022-08-19T02:56:37;5.65;;;5.25;;
21868;SDS011;11099;41.564;23.296;2022-08-19T02:59:04;6.72;;;5.35;;
21868;SDS011;11099;41.564;23.296;2022-08-19T03:01:34;7.90;;;6.50;;
21868;SDS011;11099;41.564;23.296;2022-08-19T03:04:01;6.13;;;5.63;;
21868;SDS011;11099;41.564;23.296;2022-08-19T03:06:30;6.53;;;6.00;;
21868;SDS011;11099;41.564;23.296;2022-08-19T03:08:55;6.22;;;5.72;;
21868;SDS011;11099;41.564;23.296;2022-08-19T03:11:22;11.52;;;6.10;;
21868;SDS011;11099;41.564;23.296;2022-08-19T03:13:49;8.73;;;6.10;;
21868;SDS011;11099;41.564;23.296;2022-08-19T03:16:16;7.95;;;6.15;;
21868;SDS011;11099;41.564;23.296;2022-08-19T03:18:52;12.52;;;6.55;;
21868;SDS011;11099;41.564;23.296;2022-08-19T03:21:20;9.55;;;6.75;;
21868;SDS011;11099;41.564;23.296;2022-08-19T03:23:47;12.00;;;6.70;;
21868;SDS011;11099;41.564;23.296;2022-08-19T03:26:13;7.45;;;6.75;;
21868;SDS011;11099;41.564;23.296;2022-08-19T03:28:40;6.95;;;6.18;;
21868;SDS011;11099;41.564;23.296;2022-08-19T03:31:08;12.88;;;6.50;;
21868;SDS011;11099;41.564;23.296;2022-08-19T03:33:37;6.97;;;6.38;;
21868;SDS011;11099;41.564;23.296;2022-08-19T03:36:09;6.85;;;6.00;;
21868;SDS011;11099;41.564;23.296;2022-08-19T03:38:39;9.23;;;6.32;;
21868;SDS011;11099;41.564;23.296;2022-08-19T03:41:09;6.32;;;5.72;;
21868;SDS011;11099;41.564;23.296;2022-08-19T03:43:38;8.55;;;5.57;;
21868;SDS011;11099;41.564;23.296;2022-08-19T03:46:06;9.88;;;6.00;;
21868;SDS011;11099;41.564;23.296;2022-08-19T03:48:33;7.63;;;5.90;;
21868;SDS011;11099;41.564;23.296;2022-08-19T03:51:01;7.07;;;5.63;;
21868;SDS011;11099;41.564;23.296;2022-08-19T03:53:27;7.97;;;5.57;;
21868;SDS011;11099;41.564;23.296;2022-08-19T03:55:54;7.22;;;5.75;;
21868;SDS011;11099;41.564;23.296;2022-08-19T03:58:21;7.88;;;6.07;;
21868;SDS011;11099;41.564;23.296;2022-08-19T04:00:48;6.22;;;5.68;;
21868;SDS011;11099;41.564;23.296;2022-08-19T04:03:13;6.47;;;5.63;;
21868;SDS011;11099;41.564;23.296;2022-08-19T04:05:39;7.18;;;6.07;;
21868;SDS011;11099;41.564;23.296;2022-08-19T04:08:05;7.22;;;5.88;;
21868;SDS011;11099;41.564;23.296;2022-08-19T04:10:31;11.68;;;6.05;;
21868;SDS011;11099;41.564;23.296;2022-08-19T04:13:01;8.02;;;6.30;;
21868;SDS011;11099;41.564;23.296;2022-08-19T04:15:26;6.70;;;5.93;;
21868;SDS011;11099;41.564;23.296;2022-08-19T04:17:56;6.85;;;5.78;;
21868;SDS011;11099;41.564;23.296;2022-08-19T04:20:21;6.15;;;5.55;;
21868;SDS011;11099;41.564;23.296;2022-08-19T04:22:47;6.03;;;5.45;;
21868;SDS011;11099;41.564;23.296;2022-08-19T04:25:12;6.18;;;5.65;;
21868;SDS011;11099;41.564;23.296;2022-08-19T04:27:38;6.47;;;5.10;;
21868;SDS011;11099;41.564;23.296;2022-08-19T04:30:03;6.25;;;5.65;;
21868;SDS011;11099;41.564;23.296;2022-08-19T04:32:29;7.65;;;5.57;;
21868;SDS011;11099;41.564;23.296;2022-08-19T04:34:57;6.95;;;5.25;;
21868;SDS011;11099;41.564;23.296;2022-08-19T04:37:23;6.15;;;5.22;;
21868;SDS011;11099;41.564;23.296;2022-08-19T04:39:51;6.63;;;5.47;;
21868;SDS011;11099;41.564;23.296;2022-08-19T04:42:36;6.95;;;5.45;;
21868;SDS011;11099;41.564;23.296;2022-08-19T04:45:04;7.20;;;4.85;;
21868;SDS011;11099;41.564;23.296;2022-08-19T04:47:36;9.90;;;5.32;;
21868;SDS011;11099;41.564;23.296;2022-08-19T04:50:03;6.72;;;5.00;;
21868;SDS011;11099;41.564;23.296;2022-08-19T04:52:29;7.75;;;5.70;;
21868;SDS011;11099;41.564;23.296;2022-08-19T04:54:56;10.70;;;5.47;;
21868;SDS011;11099;41.564;23.296;2022-08-19T04:57:22;9.13;;;5.50;;
21868;SDS011;11099;41.564;23.296;2022-08-19T04:59:48;6.28;;;5.40;;
21868;SDS011;11099;41.564;23.296;2022-08-19T05:02:13;7.22;;;5.20;;
21868;SDS011;11099;41.564;23.296;2022-08-19T05:04:39;8.57;;;5.50;;
21868;SDS011;11099;41.564;23.296;2022-08-19T05:07:05;10.82;;;5.78;;
21868;SDS011;11099;41.564;23.296;2022-08-19T05:09:32;7.38;;;5.20;;
21868;SDS011;11099;41.564;23.296;2022-08-19T05:11:57;7.38;;;5.35;;
21868;SDS011;11099;41.564;23.296;2022-08-19T05:14:23;6.13;;;4.90;;
21868;SDS011;11099;41.564;23.296;2022-08-19T05:16:49;6.10;;;5.00;;
21868;SDS011;11099;41.564;23.296;2022-08-19T05:19:15;5.13;;;4.78;;
21868;SDS011;11099;41.564;23.296;2022-08-19T05:21:59;5.45;;;5.05;;
21868;SDS011;11099;41.564;23.296;2022-08-19T05:24:44;6.55;;;5.57;;
21868;SDS011;11099;41.564;23.296;2022-08-19T05:27:09;8.75;;;5.28;;
21868;SDS011;11099;41.564;23.296;2022-08-19T05:29:35;8.68;;;5.28;;
21868;SDS011;11099;41.564;23.296;2022-08-19T05:32:02;7.80;;;5.45;;
21868;SDS011;11099;41.564;23.296;2022-08-19T05:34:30;6.85;;;5.15;;
21868;SDS011;11099;41.564;23.296;2022-08-19T05:36:58;5.63;;;5.03;;
21868;SDS011;11099;41.564;23.296;2022-08-19T05:39:26;5.43;;;4.97;;
21868;SDS011;11099;41.564;23.296;2022-08-19T05:41:55;11.13;;;5.47;;
21868;SDS011;11099;41.564;23.296;2022-08-19T05:44:23;6.82;;;5.53;;
21868;SDS011;11099;41.564;23.296;2022-08-19T05:46:50;10.18;;;6.03;;
21868;SDS011;11099;41.564;23.296;2022-08-19T05:49:20;10.85;;;5.40;;
21868;SDS011;11099;41.564;23.296;2022-08-19T05:51:47;9.63;;;5.47;;
21868;SDS011;11099;41.564;23.296;2022-08-19T05:54:13;9.55;;;5.60;;
21868;SDS011;11099;41.564;23.296;2022-08-19T05:56:39;8.65;;;5.60;;
21868;SDS011;11099;41.564;23.296;2022-08-19T05:59:06;5.57;;;5.07;;
21868;SDS011;11099;41.564;23.296;2022-08-19T06:01:40;8.65;;;5.55;;
21868;SDS011;11099;41.564;23.296;2022-08-19T06:04:07;11.13;;;5.22;;
21868;SDS011;11099;41.564;23.296;2022-08-19T06:06:34;7.80;;;5.68;;
21868;SDS011;11099;41.564;23.296;2022-08-19T06:09:04;9.13;;;5.32;;
21868;SDS011;11099;41.564;23.296;2022-08-19T06:11:32;6.25;;;5.75;;
21868;SDS011;11099;41.564;23.296;2022-08-19T06:14:02;6.38;;;5.05;;
21868;SDS011;11099;41.564;23.296;2022-08-19T06:16:29;8.18;;;5.00;;
21868;SDS011;11099;41.564;23.296;2022-08-19T06:18:57;5.60;;;5.10;;
21868;SDS011;11099;41.564;23.296;2022-08-19T06:21:26;10.15;;;5.53;;
21868;SDS011;11099;41.564;23.296;2022-08-19T06:23:53;5.97;;;5.30;;
21868;SDS011;11099;41.564;23.296;2022-08-19T06:26:21;10.00;;;6.00;;
21868;SDS011;11099;41.564;23.296;2022-08-19T06:28:46;9.70;;;5.65;;
21868;SDS011;11099;41.564;23.296;2022-08-19T06:31:16;8.60;;;5.10;;
21868;SDS011;11099;41.564;23.296;2022-08-19T06:33:47;11.73;;;5.63;;
21868;SDS011;11099;41.564;23.296;2022-08-19T06:36:21;7.13;;;5.95;;
21868;SDS011;11099;41.564;23.296;2022-08-19T06:38:53;11.48;;;5.70;;
21868;SDS011;11099;41.564;23.296;2022-08-19T06:41:19;14.82;;;5.88;;
21868;SDS011;11099;41.564;23.296;2022-08-19T06:43:44;5.88;;;5.07;;
21868;SDS011;11099;41.564;23.296;2022-08-19T06:46:14;9.07;;;4.88;;
21868;SDS011;11099;41.564;23.296;2022-08-19T06:48:40;9.60;;;5.63;;
21868;SDS011;11099;41.564;23.296;2022-08-19T06:51:07;21.17;;;9.82;;
21868;SDS011;11099;41.564;23.296;2022-08-19T06:53:32;12.07;;;5.95;;
21868;SDS011;11099;41.564;23.296;2022-08-19T06:55:58;7.85;;;5.80;;
21868;SDS011;11099;41.564;23.296;2022-08-19T06:58:28;11.02;;;6.00;;
21868;SDS011;11099;41.564;23.296;2022-08-19T07:01:00;6.75;;;6.10;;
21868;SDS011;11099;41.564;23.296;2022-08-19T07:03:31;5.88;;;5.40;;
21868;SDS011;11099;41.564;23.296;2022-08-19T07:06:10;8.32;;;5.97;;
21868;SDS011;11099;41.564;23.296;2022-08-19T07:08:39;9.30;;;5.75;;
21868;SDS011;11099;41.564;23.296;2022-08-19T07:11:09;5.85;;;5.28;;
21868;SDS011;11099;41.564;23.296;2022-08-19T07:13:38;10.70;;;6.70;;
21868;SDS011;11099;41.564;23.296;2022-08-19T07:16:04;6.82;;;5.70;;
21868;SDS011;11099;41.564;23.296;2022-08-19T07:18:34;9.82;;;5.57;;
21868;SDS011;11099;41.564;23.296;2022-08-19T07:23:31;10.07;;;5.88;;
21868;SDS011;11099;41.564;23.296;2022-08-19T07:25:57;8.18;;;5.53;;
21868;SDS011;11099;41.564;23.296;2022-08-19T07:28:23;6.93;;;5.65;;
21868;SDS011;11099;41.564;23.296;2022-08-19T07:30:49;6.43;;;5.78;;
21868;SDS011;11099;41.564;23.296;2022-08-19T07:33:15;9.20;;;5.55;;
21868;SDS011;11099;41.564;23.296;2022-08-19T07:35:43;8.32;;;5.85;;
21868;SDS011;11099;41.564;23.296;2022-08-19T07:38:09;6.20;;;5.53;;
21868;SDS011;11099;41.564;23.296;2022-08-19T07:40:35;6.03;;;5.55;;
21868;SDS011;11099;41.564;23.296;2022-08-19T07:43:00;5.90;;;5.40;;
21868;SDS011;11099;41.564;23.296;2022-08-19T07:45:26;6.18;;;5.35;;
21868;SDS011;11099;41.564;23.296;2022-08-19T07:47:53;6.72;;;5.95;;
21868;SDS011;11099;41.564;23.296;2022-08-19T07:50:20;5.90;;;5.35;;
21868;SDS011;11099;41.564;23.296;2022-08-19T07:52:46;6.18;;;5.57;;
21868;SDS011;11099;41.564;23.296;2022-08-19T07:55:15;10.32;;;6.35;;
21868;SDS011;11099;41.564;23.296;2022-08-19T07:57:42;7.85;;;5.88;;
21868;SDS011;11099;41.564;23.296;2022-08-19T08:00:08;6.68;;;5.95;;
21868;SDS011;11099;41.564;23.296;2022-08-19T08:02:34;9.35;;;6.20;;
21868;SDS011;11099;41.564;23.296;2022-08-19T08:04:59;12.48;;;6.50;;
21868;SDS011;11099;41.564;23.296;2022-08-19T08:07:43;7.93;;;6.05;;
21868;SDS011;11099;41.564;23.296;2022-08-19T08:10:27;6.72;;;6.07;;
21868;SDS011;11099;41.564;23.296;2022-08-19T08:12:53;7.07;;;6.03;;
21868;SDS011;11099;41.564;23.296;2022-08-19T08:15:19;8.25;;;6.18;;
21868;SDS011;11099;41.564;23.296;2022-08-19T08:17:44;6.57;;;5.75;;
21868;SDS011;11099;41.564;23.296;2022-08-19T08:20:10;6.22;;;5.60;;
21868;SDS011;11099;41.564;23.296;2022-08-19T08:22:42;9.80;;;5.72;;
21868;SDS011;11099;41.564;23.296;2022-08-19T08:25:27;11.35;;;5.28;;
21868;SDS011;11099;41.564;23.296;2022-08-19T08:27:53;5.60;;;5.20;;
21868;SDS011;11099;41.564;23.296;2022-08-19T08:30:20;7.40;;;5.78;;
21868;SDS011;11099;41.564;23.296;2022-08-19T08:32:47;7.65;;;5.72;;
21868;SDS011;11099;41.564;23.296;2022-08-19T08:35:14;8.15;;;6.00;;
21868;SDS011;11099;41.564;23.296;2022-08-19T08:37:42;7.47;;;5.53;;
21868;SDS011;11099;41.564;23.296;2022-08-19T08:40:16;6.80;;;5.57;;
21868;SDS011;11099;41.564;23.296;2022-08-19T08:42:54;6.60;;;5.97;;
21868;SDS011;11099;41.564;23.296;2022-08-19T08:45:30;7.20;;;5.82;;
21868;SDS011;11099;41.564;23.296;2022-08-19T08:48:01;8.82;;;6.03;;
21868;SDS011;11099;41.564;23.296;2022-08-19T08:50:38;6.05;;;5.50;;
21868;SDS011;11099;41.564;23.296;2022-08-19T08:53:08;15.27;;;6.13;;
21868;SDS011;11099;41.564;23.296;2022-08-19T08:55:35;9.13;;;5.72;;
21868;SDS011;11099;41.564;23.296;2022-08-19T08:58:05;7.72;;;5.72;;
21868;SDS011;11099;41.564;23.296;2022-08-19T09:00:40;6.93;;;5.72;;
21868;SDS011;11099;41.564;23.296;2022-08-19T09:03:13;9.68;;;6.05;;
21868;SDS011;11099;41.564;23.296;2022-08-19T09:08:22;6.60;;;6.00;;
21868;SDS011;11099;41.564;23.296;2022-08-19T09:10:57;5.95;;;5.45;;
21868;SDS011;11099;41.564;23.296;2022-08-19T09:16:08;7.28;;;6.28;;
21868;SDS011;11099;41.564;23.296;2022-08-19T09:18:43;7.47;;;5.35;;
21868;SDS011;11099;41.564;23.296;2022-08-19T09:21:12;9.60;;;5.80;;
21868;SDS011;11099;41.564;23.296;2022-08-19T09:23:40;7.55;;;5.70;;
21868;SDS011;11099;41.564;23.296;2022-08-19T09:26:07;6.13;;;5.50;;
21868;SDS011;11099;41.564;23.296;2022-08-19T09:28:39;8.75;;;5.25;;
21868;SDS011;11099;41.564;23.296;2022-08-19T09:31:11;5.80;;;5.30;;
21868;SDS011;11099;41.564;23.296;2022-08-19T09:33:38;6.18;;;5.43;;
21868;SDS011;11099;41.564;23.296;2022-08-19T09:36:05;6.90;;;5.47;;
21868;SDS011;11099;41.564;23.296;2022-08-19T09:38:33;7.43;;;5.72;;
21868;SDS011;11099;41.564;23.296;2022-08-19T09:41:05;8.23;;;5.20;;
21868;SDS011;11099;41.564;23.296;2022-08-19T09:43:33;6.28;;;5.45;;
21868;SDS011;11099;41.564;23.296;2022-08-19T09:46:02;6.32;;;5.22;;
21868;SDS011;11099;41.564;23.296;2022-08-19T09:48:30;5.90;;;5.30;;
21868;SDS011;11099;41.564;23.296;2022-08-19T09:51:07;5.53;;;4.90;;
21868;SDS011;11099;41.564;23.296;2022-08-19T09:56:01;9.80;;;6.40;;
21868;SDS011;11099;41.564;23.296;2022-08-19T09:58:28;8.65;;;5.38;;
21868;SDS011;11099;41.564;23.296;2022-08-19T10:00:55;7.05;;;5.20;;
21868;SDS011;11099;41.564;23.296;2022-08-19T10:03:21;6.90;;;5.45;;
21868;SDS011;11099;41.564;23.296;2022-08-19T10:05:48;8.85;;;5.18;;
21868;SDS011;11099;41.564;23.296;2022-08-19T10:08:15;6.05;;;4.95;;
21868;SDS011;11099;41.564;23.296;2022-08-19T10:10:45;6.80;;;5.03;;
21868;SDS011;11099;41.564;23.296;2022-08-19T10:13:11;7.47;;;4.70;;
21868;SDS011;11099;41.564;23.296;2022-08-19T10:18:05;6.00;;;4.65;;
21868;SDS011;11099;41.564;23.296;2022-08-19T10:20:32;4.97;;;4.50;;
21868;SDS011;11099;41.564;23.296;2022-08-19T10:22:57;5.50;;;4.80;;
21868;SDS011;11099;41.564;23.296;2022-08-19T10:27:52;6.03;;;4.68;;
21868;SDS011;11099;41.564;23.296;2022-08-19T10:30:18;5.82;;;4.43;;
21868;SDS011;11099;41.564;23.296;2022-08-19T10:32:44;5.50;;;4.53;;
21868;SDS011;11099;41.564;23.296;2022-08-19T10:35:11;5.63;;;4.47;;
21868;SDS011;11099;41.564;23.296;2022-08-19T10:37:38;4.53;;;4.13;;
21868;SDS011;11099;41.564;23.296;2022-08-19T10:40:05;4.68;;;4.20;;
21868;SDS011;11099;41.564;23.296;2022-08-19T10:42:33;4.85;;;4.45;;
21868;SDS011;11099;41.564;23.296;2022-08-19T10:45:00;4.65;;;4.03;;
21868;SDS011;11099;41.564;23.296;2022-08-19T10:47:26;9.13;;;4.07;;
21868;SDS011;11099;41.564;23.296;2022-08-19T10:49:52;8.35;;;4.03;;
21868;SDS011;11099;41.564;23.296;2022-08-19T10:52:43;4.43;;;3.85;;
21868;SDS011;11099;41.564;23.296;2022-08-19T10:55:11;6.47;;;4.15;;
21868;SDS011;11099;41.564;23.296;2022-08-19T10:57:55;5.63;;;4.03;;
21868;SDS011;11099;41.564;23.296;2022-08-19T11:00:22;4.93;;;4.03;;
21868;SDS011;11099;41.564;23.296;2022-08-19T11:02:49;5.57;;;3.97;;
21868;SDS011;11099;41.564;23.296;2022-08-19T11:05:15;4.90;;;3.90;;
21868;SDS011;11099;41.564;23.296;2022-08-19T11:07:42;7.07;;;3.70;;
21868;SDS011;11099;41.564;23.296;2022-08-19T11:10:10;7.93;;;3.58;;
21868;SDS011;11099;41.564;23.296;2022-08-19T11:12:38;4.80;;;3.00;;
21868;SDS011;11099;41.564;23.296;2022-08-19T11:15:05;4.05;;;3.60;;
21868;SDS011;11099;41.564;23.296;2022-08-19T11:17:35;4.65;;;3.63;;
21868;SDS011;11099;41.564;23.296;2022-08-19T11:20:05;5.47;;;3.47;;
21868;SDS011;11099;41.564;23.296;2022-08-19T11:22:31;4.45;;;3.80;;
21868;SDS011;11099;41.564;23.296;2022-08-19T11:24:57;3.88;;;3.55;;
21868;SDS011;11099;41.564;23.296;2022-08-19T11:27:22;4.35;;;3.33;;
21868;SDS011;11099;41.564;23.296;2022-08-19T11:29:48;4.60;;;3.80;;
21868;SDS011;11099;41.564;23.296;2022-08-19T11:32:14;5.28;;;3.03;;
21868;SDS011;11099;41.564;23.296;2022-08-19T11:34:40;3.50;;;3.20;;
21868;SDS011;11099;41.564;23.296;2022-08-19T11:37:06;7.57;;;3.50;;
21868;SDS011;11099;41.564;23.296;2022-08-19T11:39:33;3.60;;;3.40;;
21868;SDS011;11099;41.564;23.296;2022-08-19T11:44:28;3.30;;;3.10;;
21868;SDS011;11099;41.564;23.296;2022-08-19T11:46:55;3.47;;;3.27;;
21868;SDS011;11099;41.564;23.296;2022-08-19T11:49:21;5.50;;;3.28;;
21868;SDS011;11099;41.564;23.296;2022-08-19T11:51:47;6.22;;;3.08;;
21868;SDS011;11099;41.564;23.296;2022-08-19T11:54:15;3.90;;;3.60;;
21868;SDS011;11099;41.564;23.296;2022-08-19T11:56:42;3.83;;;3.40;;
21868;SDS011;11099;41.564;23.296;2022-08-19T11:59:09;4.95;;;3.65;;
21868;SDS011;11099;41.564;23.296;2022-08-19T12:01:35;3.83;;;3.53;;
21868;SDS011;11099;41.564;23.296;2022-08-19T12:04:01;6.35;;;3.78;;
21868;SDS011;11099;41.564;23.296;2022-08-19T12:06:30;4.38;;;3.90;;
21868;SDS011;11099;41.564;23.296;2022-08-19T12:08:59;6.72;;;3.95;;
21868;SDS011;11099;41.564;23.296;2022-08-19T12:11:31;4.05;;;3.65;;
21868;SDS011;11099;41.564;23.296;2022-08-19T12:13:58;4.68;;;3.80;;
21868;SDS011;11099;41.564;23.296;2022-08-19T12:16:25;6.65;;;4.15;;
21868;SDS011;11099;41.564;23.296;2022-08-19T12:18:53;6.10;;;3.97;;
21868;SDS011;11099;41.564;23.296;2022-08-19T12:21:21;7.30;;;3.38;;
21868;SDS011;11099;41.564;23.296;2022-08-19T12:23:50;3.70;;;3.40;;
21868;SDS011;11099;41.564;23.296;2022-08-19T12:26:16;5.45;;;3.70;;
21868;SDS011;11099;41.564;23.296;2022-08-19T12:28:42;4.88;;;3.80;;
21868;SDS011;11099;41.564;23.296;2022-08-19T12:31:08;5.53;;;3.97;;
21868;SDS011;11099;41.564;23.296;2022-08-19T12:33:37;6.30;;;3.90;;
21868;SDS011;11099;41.564;23.296;2022-08-19T12:36:04;4.53;;;4.13;;
21868;SDS011;11099;41.564;23.296;2022-08-19T12:38:31;4.60;;;4.20;;
21868;SDS011;11099;41.564;23.296;2022-08-19T12:40:59;5.13;;;4.15;;
21868;SDS011;11099;41.564;23.296;2022-08-19T12:43:26;5.20;;;4.05;;
21868;SDS011;11099;41.564;23.296;2022-08-19T12:45:52;4.88;;;4.35;;
21868;SDS011;11099;41.564;23.296;2022-08-19T12:48:17;4.80;;;4.30;;
21868;SDS011;11099;41.564;23.296;2022-08-19T12:50:44;4.57;;;4.13;;
21868;SDS011;11099;41.564;23.296;2022-08-19T12:53:13;7.47;;;4.10;;
21868;SDS011;11099;41.564;23.296;2022-08-19T12:55:39;5.30;;;3.70;;
21868;SDS011;11099;41.564;23.296;2022-08-19T12:58:06;6.13;;;4.45;;
21868;SDS011;11099;41.564;23.296;2022-08-19T13:00:33;5.13;;;4.63;;
21868;SDS011;11099;41.564;23.296;2022-08-19T13:02:59;5.75;;;4.10;;
21868;SDS011;11099;41.564;23.296;2022-08-19T13:05:26;5.25;;;4.20;;
21868;SDS011;11099;41.564;23.296;2022-08-19T13:07:55;4.68;;;4.20;;
21868;SDS011;11099;41.564;23.296;2022-08-19T13:10:23;5.13;;;4.07;;
21868;SDS011;11099;41.564;23.296;2022-08-19T13:12:52;4.40;;;4.00;;
21868;SDS011;11099;41.564;23.296;2022-08-19T13:15:19;4.95;;;4.07;;
21868;SDS011;11099;41.564;23.296;2022-08-19T13:17:47;7.00;;;3.90;;
21868;SDS011;11099;41.564;23.296;2022-08-19T13:20:14;7.13;;;4.40;;
21868;SDS011;11099;41.564;23.296;2022-08-19T13:22:41;4.80;;;4.30;;
21868;SDS011;11099;41.564;23.296;2022-08-19T13:25:07;4.57;;;4.18;;
21868;SDS011;11099;41.564;23.296;2022-08-19T13:27:34;4.50;;;4.10;;
21868;SDS011;11099;41.564;23.296;2022-08-19T13:30:00;4.10;;;3.75;;
21868;SDS011;11099;41.564;23.296;2022-08-19T13:32:46;6.60;;;4.20;;
21868;SDS011;11099;41.564;23.296;2022-08-19T13:35:30;5.03;;;4.10;;
21868;SDS011;11099;41.564;23.296;2022-08-19T13:37:56;4.32;;;4.03;;
21868;SDS011;11099;41.564;23.296;2022-08-19T13:40:22;8.40;;;4.22;;
21868;SDS011;11099;41.564;23.296;2022-08-19T13:42:51;4.78;;;4.18;;
21868;SDS011;11099;41.564;23.296;2022-08-19T13:45:22;5.07;;;4.30;;
21868;SDS011;11099;41.564;23.296;2022-08-19T13:47:50;4.38;;;4.05;;
21868;SDS011;11099;41.564;23.296;2022-08-19T13:50:18;5.43;;;4.30;;
21868;SDS011;11099;41.564;23.296;2022-08-19T13:52:47;4.60;;;4.20;;
21868;SDS011;11099;41.564;23.296;2022-08-19T13:55:13;7.82;;;4.05;;
21868;SDS011;11099;41.564;23.296;2022-08-19T13:57:40;7.87;;;4.43;;
21868;SDS011;11099;41.564;23.296;2022-08-19T14:00:10;6.50;;;4.20;;
21868;SDS011;11099;41.564;23.296;2022-08-19T14:02:39;7.15;;;4.50;;
21868;SDS011;11099;41.564;23.296;2022-08-19T14:05:05;4.55;;;4.18;;
21868;SDS011;11099;41.564;23.296;2022-08-19T14:07:33;4.63;;;4.22;;
21868;SDS011;11099;41.564;23.296;2022-08-19T14:09:59;4.93;;;4.45;;
21868;SDS011;11099;41.564;23.296;2022-08-19T14:12:25;4.60;;;4.00;;
21868;SDS011;11099;41.564;23.296;2022-08-19T14:14:50;6.45;;;4.22;;
21868;SDS011;11099;41.564;23.296;2022-08-19T14:17:16;4.07;;;3.78;;
21868;SDS011;11099;41.564;23.296;2022-08-19T14:19:42;5.93;;;4.10;;
21868;SDS011;11099;41.564;23.296;2022-08-19T14:22:08;4.35;;;3.95;;
21868;SDS011;11099;41.564;23.296;2022-08-19T14:24:34;4.32;;;4.03;;
21868;SDS011;11099;41.564;23.296;2022-08-19T14:26:59;5.32;;;3.72;;
21868;SDS011;11099;41.564;23.296;2022-08-19T14:29:25;4.00;;;3.70;;
21868;SDS011;11099;41.564;23.296;2022-08-19T14:31:53;4.30;;;3.70;;
21868;SDS011;11099;41.564;23.296;2022-08-19T14:34:21;4.13;;;3.70;;
21868;SDS011;11099;41.564;23.296;2022-08-19T14:36:47;4.30;;;4.00;;
21868;SDS011;11099;41.564;23.296;2022-08-19T14:39:12;6.05;;;3.75;;
21868;SDS011;11099;41.564;23.296;2022-08-19T14:41:39;4.40;;;4.00;;
21868;SDS011;11099;41.564;23.296;2022-08-19T14:44:06;5.50;;;4.15;;
21868;SDS011;11099;41.564;23.296;2022-08-19T14:46:32;6.20;;;4.40;;
21868;SDS011;11099;41.564;23.296;2022-08-19T14:48:59;5.90;;;3.92;;
21868;SDS011;11099;41.564;23.296;2022-08-19T14:51:25;5.53;;;4.20;;
21868;SDS011;11099;41.564;23.296;2022-08-19T14:53:52;5.57;;;4.20;;